createdAt,value
2019-04-07T00:00:32.777Z,80.45
2019-04-07T00:03:01.410Z,80.35
2019-04-07T00:05:29.981Z,80.28
2019-04-07T00:07:59.129Z,80.37
2019-04-07T00:10:28.637Z,80.34
2019-04-07T00:12:57.483Z,80.36
2019-04-07T00:15:26.667Z,80.23
2019-04-07T00:17:55.396Z,80.19
2019-04-07T00:20:25.480Z,80.22
2019-04-07T00:22:55.253Z,80.14
2019-04-07T00:25:25.067Z,80.10
2019-04-07T00:27:53.740Z,80.10
2019-04-07T00:30:22.479Z,80.25
2019-04-07T00:32:51.280Z,80.19
2019-04-07T00:35:26.914Z,80.20
2019-04-07T00:37:50.394Z,80.29
2019-04-07T00:40:19.719Z,80.22
2019-04-07T00:42:48.305Z,80.20
2019-04-07T00:45:17.233Z,80.16
2019-04-07T00:47:46.189Z,80.02
2019-04-07T00:50:15.302Z,79.94
2019-04-07T00:52:44.858Z,79.84
2019-04-07T00:55:14.216Z,79.83
2019-04-07T00:57:42.995Z,79.85
2019-04-07T01:00:13.365Z,79.84
2019-04-07T01:02:41.981Z,79.94
2019-04-07T01:05:11.514Z,79.96
2019-04-07T01:07:40.234Z,80.04
2019-04-07T01:10:09.686Z,80.08
2019-04-07T01:12:38.562Z,80.11
2019-04-07T01:15:09.894Z,80.12
2019-04-07T01:17:39.339Z,80.28
2019-04-07T01:20:09.283Z,80.33
2019-04-07T01:22:37.891Z,80.37
2019-04-07T01:25:07.147Z,80.44
2019-04-07T01:27:35.857Z,80.62
2019-04-07T01:30:06.378Z,80.77
2019-04-07T01:32:35.641Z,80.90
2019-04-07T01:35:07.059Z,81.11
2019-04-07T01:37:36.246Z,81.21
2019-04-07T01:40:06.609Z,81.29
2019-04-07T01:42:46.267Z,81.38
2019-04-07T01:45:22.820Z,81.44
2019-04-07T01:48:11.689Z,81.52
2019-04-07T01:50:45.194Z,81.60
2019-04-07T01:53:22.801Z,81.77
2019-04-07T01:55:59.554Z,81.95
2019-04-07T01:58:30.716Z,82.26
2019-04-07T02:01:03.909Z,82.41
2019-04-07T02:03:34.188Z,82.52
2019-04-07T02:06:07.329Z,82.85
2019-04-07T02:08:37.543Z,83.02
2019-04-07T02:11:23.914Z,83.25
2019-04-07T02:13:57.449Z,83.36
2019-04-07T02:16:46.762Z,83.47
2019-04-07T02:19:26.301Z,83.58
2019-04-07T02:22:02.458Z,83.70
2019-04-07T02:24:33.374Z,83.79
2019-04-07T02:27:06.333Z,83.96
2019-04-07T02:29:53.032Z,84.13
2019-04-07T02:32:32.657Z,84.22
2019-04-07T02:35:09.220Z,84.36
2019-04-07T02:37:39.447Z,84.60
2019-04-07T02:40:16.345Z,84.68
2019-04-07T02:42:47.069Z,84.81
2019-04-07T02:45:30.490Z,84.91
2019-04-07T02:48:12.574Z,85.01
2019-04-07T02:50:46.543Z,85.03
2019-04-07T02:53:16.798Z,85.09
2019-04-07T02:55:47.117Z,85.24
2019-04-07T02:58:23.959Z,85.56
2019-04-07T03:00:54.447Z,85.62
2019-04-07T03:03:36.985Z,85.72
2019-04-07T03:06:07.176Z,85.89
2019-04-07T03:08:37.827Z,85.86
2019-04-07T03:11:26.638Z,86.09
2019-04-07T03:14:14.114Z,86.41
2019-04-07T03:16:44.778Z,86.40
2019-04-07T03:19:24.036Z,86.52
2019-04-07T03:21:57.802Z,86.78
2019-04-07T03:24:37.331Z,86.96
2019-04-07T03:27:19.550Z,87.16
2019-04-07T03:29:49.765Z,87.09
2019-04-07T03:32:23.939Z,87.54
2019-04-07T03:34:54.100Z,87.46
2019-04-07T03:37:38.702Z,87.46
2019-04-07T03:40:18.666Z,87.42
2019-04-07T03:42:55.307Z,87.68
2019-04-07T03:45:34.577Z,88.01
2019-04-07T03:48:06.893Z,87.97
2019-04-07T03:50:43.063Z,88.00
2019-04-07T03:53:30.471Z,88.00
2019-04-07T03:56:01.794Z,88.03
2019-04-07T03:58:50.741Z,88.05
2019-04-07T04:01:33.677Z,88.03
2019-04-07T04:04:05.351Z,87.96
2019-04-07T04:06:51.525Z,87.87
2019-04-07T04:09:28.420Z,88.07
2019-04-07T04:12:03.039Z,88.04
2019-04-07T04:14:36.410Z,88.18
2019-04-07T04:17:05.188Z,88.21
2019-04-07T04:19:34.724Z,88.29
2019-04-07T04:22:04.071Z,88.52
2019-04-07T04:24:33.662Z,88.46
2019-04-07T04:27:02.531Z,88.33
2019-04-07T04:29:31.804Z,88.34
2019-04-07T04:32:01.567Z,88.50
2019-04-07T04:34:30.284Z,88.37
2019-04-07T04:36:59.918Z,88.43
2019-04-07T04:39:29.828Z,88.48
2019-04-07T04:41:58.408Z,88.50
2019-04-07T04:44:28.331Z,88.45
2019-04-07T04:46:58.293Z,88.52
2019-04-07T04:49:27.102Z,88.48
2019-04-07T04:51:56.078Z,88.36
2019-04-07T04:54:25.834Z,88.40
2019-04-07T04:56:54.951Z,88.62
2019-04-07T04:59:23.811Z,88.55
2019-04-07T05:01:53.130Z,88.60
2019-04-07T05:04:23.005Z,88.65
2019-04-07T05:06:52.500Z,88.80
2019-04-07T05:09:21.208Z,88.75
2019-04-07T05:11:49.806Z,88.80
2019-04-07T05:14:18.436Z,88.67
2019-04-07T05:16:47.206Z,88.57
2019-04-07T05:19:16.334Z,88.52
2019-04-07T05:21:45.787Z,88.45
2019-04-07T05:24:14.690Z,88.29
2019-04-07T05:26:43.333Z,88.07
2019-04-07T05:29:11.964Z,87.96
2019-04-07T05:31:41.251Z,87.81
2019-04-07T05:34:10.783Z,87.69
2019-04-07T05:36:40.114Z,87.60
2019-04-07T05:39:10.228Z,87.48
2019-04-07T05:41:40.169Z,87.46
2019-04-07T05:44:08.882Z,87.18
2019-04-07T05:46:40.927Z,86.76
2019-04-07T05:49:07.758Z,86.27
2019-04-07T05:51:37.004Z,85.95
2019-04-07T05:54:05.698Z,85.78
2019-04-07T05:56:34.842Z,85.62
2019-04-07T05:59:03.504Z,85.59
2019-04-07T06:01:32.302Z,85.49
2019-04-07T06:04:01.274Z,85.40
2019-04-07T06:06:29.990Z,85.34
2019-04-07T06:08:58.701Z,85.17
2019-04-07T06:11:33.148Z,85.04
2019-04-07T06:13:59.928Z,84.54
2019-04-07T06:16:28.814Z,84.53
2019-04-07T06:18:57.764Z,84.40
2019-04-07T06:21:26.503Z,82.86
2019-04-07T06:23:58.424Z,79.10
2019-04-07T06:26:25.627Z,79.10
2019-04-07T06:28:58.071Z,77.10
2019-04-07T06:31:26.302Z,74.75
2019-04-07T06:33:55.232Z,72.99
2019-04-07T06:36:26.602Z,71.59
2019-04-07T06:38:55.010Z,69.68
2019-04-07T06:41:24.278Z,68.88
2019-04-07T06:44:02.611Z,67.09
2019-04-07T06:46:39.050Z,65.89
2019-04-07T06:49:12.279Z,64.86
2019-04-07T06:51:42.403Z,64.30
2019-04-07T06:54:28.702Z,63.26
2019-04-07T06:56:59.096Z,62.13
2019-04-07T06:59:49.155Z,60.85
2019-04-07T07:02:20.845Z,59.78
2019-04-07T07:04:53.998Z,59.38
2019-04-07T07:07:26.109Z,58.95
2019-04-07T07:10:00.130Z,58.28
2019-04-07T07:12:38.787Z,57.98
2019-04-07T07:15:15.657Z,57.26
2019-04-07T07:17:50.788Z,56.34
2019-04-07T07:20:23.132Z,55.90
2019-04-07T07:23:03.826Z,55.19
2019-04-07T07:25:33.307Z,55.06
2019-04-07T07:28:04.362Z,54.79
2019-04-07T07:30:43.849Z,53.79
2019-04-07T07:33:16.333Z,52.98
2019-04-07T07:35:48.195Z,52.47
2019-04-07T07:38:16.488Z,51.98
2019-04-07T07:40:47.768Z,51.98
2019-04-07T07:43:16.795Z,51.12
2019-04-07T07:45:48.163Z,50.64
2019-04-07T07:48:18.422Z,50.10
2019-04-07T07:50:48.757Z,49.63
2019-04-07T07:53:21.902Z,49.84
2019-04-07T07:55:48.991Z,49.16
2019-04-07T07:58:19.412Z,49.15
2019-04-07T08:00:48.498Z,49.16
2019-04-07T08:03:20.871Z,48.90
2019-04-07T08:05:50.057Z,48.69
2019-04-07T08:08:20.035Z,49.01
2019-04-07T08:10:48.839Z,48.73
2019-04-07T08:13:19.009Z,48.58
2019-04-07T08:15:47.812Z,48.80
2019-04-07T08:18:19.384Z,47.84
2019-04-07T08:20:46.685Z,47.84
2019-04-07T08:23:15.563Z,47.08
2019-04-07T08:25:44.258Z,46.13
2019-04-07T08:28:13.555Z,46.17
2019-04-07T08:30:44.430Z,46.14
2019-04-07T08:33:12.686Z,45.02
2019-04-07T08:35:41.255Z,45.19
2019-04-07T08:38:09.898Z,44.73
2019-04-07T08:40:39.252Z,44.27
2019-04-07T08:43:08.284Z,44.13
2019-04-07T08:45:37.175Z,43.53
2019-04-07T08:48:06.376Z,43.63
2019-04-07T08:50:35.093Z,42.86
2019-04-07T08:53:04.336Z,42.49
2019-04-07T08:55:33.439Z,41.80
2019-04-07T08:58:04.308Z,42.30
2019-04-07T09:00:34.104Z,41.37
2019-04-07T09:03:10.564Z,40.94
2019-04-07T09:05:33.547Z,40.92
2019-04-07T09:08:05.728Z,40.98
2019-04-07T09:10:37.165Z,40.89
2019-04-07T09:13:08.367Z,40.68
2019-04-07T09:15:48.857Z,40.97
2019-04-07T09:18:27.852Z,40.68
2019-04-07T09:20:58.071Z,40.14
2019-04-07T09:23:31.289Z,40.14
2019-04-07T09:26:04.112Z,39.90
2019-04-07T09:28:52.930Z,39.90
2019-04-07T09:31:21.976Z,39.29
2019-04-07T09:33:52.836Z,39.72
2019-04-07T09:36:31.585Z,39.43
2019-04-07T09:39:03.605Z,39.23
2019-04-07T09:41:32.713Z,39.42
2019-04-07T09:44:05.470Z,39.40
2019-04-07T09:46:48.910Z,39.15
2019-04-07T09:49:32.034Z,38.88
2019-04-07T09:52:05.639Z,37.98
2019-04-07T09:54:35.940Z,37.64
2019-04-07T09:57:30.323Z,38.48
2019-04-07T10:00:12.691Z,38.47
2019-04-07T10:02:43.701Z,37.95
2019-04-07T10:05:20.230Z,38.00
2019-04-07T10:08:11.992Z,37.51
2019-04-07T10:10:43.719Z,36.96
2019-04-07T10:13:20.282Z,37.26
2019-04-07T10:15:54.242Z,37.09
2019-04-07T10:18:34.887Z,37.47
2019-04-07T10:21:11.123Z,36.80
2019-04-07T10:23:45.856Z,36.73
2019-04-07T10:26:30.246Z,37.26
2019-04-07T10:29:04.435Z,36.93
2019-04-07T10:31:34.978Z,36.66
2019-04-07T10:34:13.298Z,36.54
2019-04-07T10:36:47.454Z,37.10
2019-04-07T10:39:18.617Z,36.88
2019-04-07T10:41:55.261Z,36.54
2019-04-07T10:44:32.368Z,36.28
2019-04-07T10:47:18.400Z,36.29
2019-04-07T10:49:58.572Z,36.23
2019-04-07T10:52:23.592Z,36.31
2019-04-07T10:54:53.813Z,37.30
2019-04-07T10:57:24.087Z,37.30
2019-04-07T11:00:11.078Z,36.80
2019-04-07T11:02:41.522Z,36.79
2019-04-07T11:05:28.070Z,36.49
2019-04-07T11:08:14.979Z,37.22
2019-04-07T11:10:51.589Z,36.86
2019-04-07T11:13:38.717Z,36.64
2019-04-07T11:16:09.264Z,36.69
2019-04-07T11:18:45.613Z,36.80
2019-04-07T11:21:32.421Z,37.36
2019-04-07T11:24:03.817Z,36.89
2019-04-07T11:26:49.337Z,37.30
2019-04-07T11:29:29.561Z,37.46
2019-04-07T11:32:00.392Z,36.74
2019-04-07T11:34:31.081Z,37.47
2019-04-07T11:37:17.856Z,37.37
2019-04-07T11:39:54.586Z,37.71
2019-04-07T11:42:43.213Z,37.82
2019-04-07T11:45:22.633Z,38.24
2019-04-07T11:47:53.016Z,37.36
2019-04-07T11:50:23.761Z,37.50
2019-04-07T11:53:00.532Z,37.48
2019-04-07T11:55:47.505Z,37.63
2019-04-07T11:58:35.716Z,37.24
2019-04-07T12:01:06.830Z,37.36
2019-04-07T12:03:40.664Z,37.87
2019-04-07T12:06:14.355Z,37.39
2019-04-07T12:08:51.406Z,37.23
2019-04-07T12:11:27.821Z,37.35
2019-04-07T12:14:07.421Z,37.43
2019-04-07T12:16:56.944Z,37.58
2019-04-07T12:19:26.368Z,37.83
2019-04-07T12:22:08.638Z,37.13
2019-04-07T12:24:38.022Z,37.23
2019-04-07T12:27:13.333Z,37.57
2019-04-07T12:29:52.704Z,37.52
2019-04-07T12:32:26.035Z,37.74
2019-04-07T12:35:03.200Z,37.16
2019-04-07T12:37:50.299Z,37.19
2019-04-07T12:40:33.205Z,37.52
2019-04-07T12:43:04.623Z,36.98
2019-04-07T12:45:51.377Z,37.39
2019-04-07T12:48:25.856Z,37.51
2019-04-07T12:51:04.116Z,37.48
2019-04-07T12:53:49.021Z,37.37
2019-04-07T12:56:36.097Z,37.76
2019-04-07T12:59:23.989Z,38.08
2019-04-07T13:02:11.357Z,37.77
2019-04-07T13:05:02.028Z,37.99
2019-04-07T13:07:37.511Z,37.90
2019-04-07T13:10:14.977Z,37.94
2019-04-07T13:12:48.018Z,37.56
2019-04-07T13:15:33.563Z,37.51
2019-04-07T13:18:06.453Z,37.57
2019-04-07T13:20:50.328Z,37.59
2019-04-07T13:23:29.784Z,37.92
2019-04-07T13:26:16.480Z,38.08
2019-04-07T13:28:47.894Z,37.35
2019-04-07T13:31:19.175Z,36.91
2019-04-07T13:33:50.163Z,37.36
2019-04-07T13:36:30.078Z,37.40
2019-04-07T13:39:00.927Z,37.32
2019-04-07T13:41:52.730Z,36.80
2019-04-07T13:44:38.775Z,37.19
2019-04-07T13:47:10.800Z,37.40
2019-04-07T13:49:57.333Z,37.08
2019-04-07T13:52:34.659Z,37.19
2019-04-07T13:55:11.912Z,37.02
2019-04-07T13:57:59.459Z,37.16
2019-04-07T14:00:28.429Z,36.82
2019-04-07T14:02:58.919Z,36.43
2019-04-07T14:05:53.531Z,36.61
2019-04-07T14:08:27.021Z,36.98
2019-04-07T14:10:58.223Z,37.45
2019-04-07T14:13:37.925Z,37.81
2019-04-07T14:16:19.750Z,38.21
2019-04-07T14:18:54.610Z,38.05
2019-04-07T14:21:27.398Z,38.42
2019-04-07T14:23:59.379Z,38.26
2019-04-07T14:26:42.398Z,38.53
2019-04-07T14:29:23.136Z,38.56
2019-04-07T14:31:53.515Z,38.47
2019-04-07T14:34:37.249Z,38.77
2019-04-07T14:37:13.464Z,39.07
2019-04-07T14:39:44.472Z,39.19
2019-04-07T14:42:18.580Z,39.38
2019-04-07T14:44:58.917Z,39.36
2019-04-07T14:47:29.376Z,40.40
2019-04-07T14:50:15.980Z,40.55
2019-04-07T14:52:47.112Z,40.75
2019-04-07T14:55:24.801Z,40.73
2019-04-07T15:01:20.274Z,41.19
2019-04-07T15:03:48.991Z,41.14
2019-04-07T15:06:18.491Z,41.54
2019-04-07T15:08:51.953Z,41.05
2019-04-07T15:11:22.200Z,41.24
2019-04-07T15:13:50.863Z,41.25
2019-04-07T15:16:20.696Z,40.93
2019-04-07T15:18:55.006Z,41.41
2019-04-07T15:21:23.955Z,40.12
2019-04-07T15:23:52.992Z,40.12
2019-04-07T15:26:22.152Z,40.80
2019-04-07T15:28:50.798Z,41.25
2019-04-07T15:31:20.482Z,41.23
2019-04-07T15:33:49.784Z,41.08
2019-04-07T15:36:19.879Z,41.49
2019-04-07T15:38:49.732Z,41.64
2019-04-07T15:41:19.525Z,41.66
2019-04-07T15:43:50.044Z,41.77
2019-04-07T15:46:19.602Z,41.67
2019-04-07T15:48:48.475Z,41.94
2019-04-07T15:51:19.583Z,42.15
2019-04-07T15:53:51.523Z,42.15
2019-04-07T15:56:19.651Z,42.43
2019-04-07T15:58:49.524Z,42.82
2019-04-07T16:01:18.169Z,42.88
2019-04-07T16:03:50.516Z,42.88
2019-04-07T16:06:18.193Z,42.93
2019-04-07T16:08:46.915Z,42.60
2019-04-07T16:11:17.781Z,43.12
2019-04-07T16:13:46.405Z,43.35
2019-04-07T16:16:17.707Z,44.11
2019-04-07T16:18:46.702Z,44.28
2019-04-07T16:21:16.228Z,44.55
2019-04-07T16:23:50.216Z,44.45
2019-04-07T16:26:19.688Z,44.66
2019-04-07T16:28:50.417Z,44.73
2019-04-07T16:31:19.851Z,44.77
2019-04-07T16:33:49.712Z,45.34
2019-04-07T16:36:18.481Z,45.65
2019-04-07T16:38:47.002Z,45.52
2019-04-07T16:41:17.896Z,45.76
2019-04-07T16:43:47.293Z,45.86
2019-04-07T16:46:20.373Z,46.01
2019-04-07T16:48:46.398Z,46.66
2019-04-07T16:51:16.334Z,46.81
2019-04-07T16:53:48.556Z,46.89
2019-04-07T16:56:19.306Z,47.10
2019-04-07T16:58:47.489Z,47.42
2019-04-07T17:01:18.539Z,47.33
2019-04-07T17:03:47.213Z,48.05
2019-04-07T17:06:17.891Z,47.90
2019-04-07T17:08:47.283Z,48.29
2019-04-07T17:11:19.760Z,48.30
2019-04-07T17:13:49.162Z,48.30
2019-04-07T17:16:22.456Z,49.33
2019-04-07T17:18:49.710Z,49.32
2019-04-07T17:21:20.429Z,49.35
2019-04-07T17:23:53.169Z,49.70
2019-04-07T17:26:21.856Z,49.60
2019-04-07T17:28:56.939Z,49.86
2019-04-07T17:31:29.623Z,49.78
2019-04-07T17:33:55.839Z,49.84
2019-04-07T17:36:25.106Z,50.05
2019-04-07T17:39:03.997Z,50.20
2019-04-07T17:41:31.835Z,50.50
2019-04-07T17:44:02.594Z,50.76
2019-04-07T17:46:34.103Z,51.03
2019-04-07T17:49:23.385Z,51.33
2019-04-07T17:51:56.390Z,51.50
2019-04-07T17:54:28.825Z,51.65
2019-04-07T17:57:03.154Z,51.91
2019-04-07T18:00:06.472Z,52.07
2019-04-07T18:02:53.941Z,52.35
2019-04-07T18:05:26.435Z,52.65
2019-04-07T18:08:15.837Z,53.27
2019-04-07T18:11:00.707Z,53.62
2019-04-07T18:13:46.021Z,53.75
2019-04-07T18:16:21.308Z,54.99
2019-04-07T18:18:57.943Z,54.14
2019-04-07T18:21:47.225Z,54.59
2019-04-07T18:24:34.159Z,54.79
2019-04-07T18:27:19.509Z,55.05
2019-04-07T18:29:50.316Z,55.35
2019-04-07T18:32:37.488Z,55.39
2019-04-07T18:35:26.452Z,55.60
2019-04-07T18:38:17.341Z,56.00
2019-04-07T18:41:08.137Z,55.85
2019-04-07T18:43:49.145Z,56.14
2019-04-07T18:46:13.312Z,56.27
2019-04-07T18:48:47.827Z,56.51
2019-04-07T18:51:21.919Z,56.87
2019-04-07T18:53:53.114Z,57.00
2019-04-07T18:56:40.730Z,57.14
2019-04-07T18:59:18.183Z,57.35
2019-04-07T19:01:54.599Z,57.19
2019-04-07T19:04:29.055Z,57.37
2019-04-07T19:07:00.045Z,57.60
2019-04-07T19:09:43.923Z,57.52
2019-04-07T19:12:34.347Z,57.46
2019-04-07T19:15:08.902Z,57.56
2019-04-07T19:17:54.665Z,57.59
2019-04-07T19:20:29.077Z,57.59
2019-04-07T19:23:03.064Z,57.54
2019-04-07T19:25:42.651Z,57.48
2019-04-07T19:28:13.123Z,57.48
2019-04-07T19:30:52.513Z,57.51
2019-04-07T19:33:29.866Z,57.75
2019-04-07T19:36:18.641Z,57.56
2019-04-07T19:38:51.166Z,57.66
2019-04-07T19:41:29.417Z,57.76
2019-04-07T19:44:02.358Z,57.58
2019-04-07T19:46:48.946Z,57.83
2019-04-07T19:49:22.615Z,57.78
2019-04-07T19:51:51.810Z,57.70
2019-04-07T19:54:40.045Z,57.57
2019-04-07T19:57:27.787Z,57.62
2019-04-07T20:00:21.540Z,57.71
2019-04-07T20:02:53.159Z,57.73
2019-04-07T20:05:23.489Z,57.76
2019-04-07T20:08:10.224Z,57.74
2019-04-07T20:10:44.672Z,57.76
2019-04-07T20:13:21.985Z,57.90
2019-04-07T20:16:12.885Z,57.87
2019-04-07T20:18:59.514Z,57.88
2019-04-07T20:21:49.318Z,57.55
2019-04-07T20:24:25.917Z,57.55
2019-04-07T20:27:03.031Z,57.74
2019-04-07T20:29:44.471Z,57.58
2019-04-07T20:32:16.536Z,57.26
2019-04-07T20:34:57.020Z,57.26
2019-04-07T20:37:34.450Z,57.62
2019-04-07T20:40:08.654Z,57.71
2019-04-07T20:42:57.092Z,57.69
2019-04-07T20:45:26.811Z,57.68
2019-04-07T20:48:03.206Z,57.78
2019-04-07T20:50:37.690Z,58.02
2019-04-07T20:53:16.483Z,58.04
2019-04-07T20:55:45.182Z,58.33
2019-04-07T20:58:44.355Z,58.34
2019-04-07T21:01:10.005Z,58.71
2019-04-07T21:03:51.700Z,58.71
2019-04-07T21:06:38.468Z,58.87
2019-04-07T21:09:25.972Z,59.02
2019-04-07T21:11:59.376Z,59.15
2019-04-07T21:14:38.974Z,59.19
2019-04-07T21:17:28.777Z,59.22
2019-04-07T21:19:59.579Z,59.42
2019-04-07T21:22:38.972Z,59.53
2019-04-07T21:25:19.465Z,59.75
2019-04-07T21:28:07.727Z,59.97
2019-04-07T21:30:48.341Z,59.98
2019-04-07T21:33:28.162Z,60.15
2019-04-07T21:36:16.268Z,60.32
2019-04-07T21:38:54.842Z,60.52
2019-04-07T21:41:24.346Z,60.71
2019-04-07T21:44:00.462Z,60.87
2019-04-07T21:46:46.852Z,60.97
2019-04-07T21:49:32.789Z,61.09
2019-04-07T21:52:13.040Z,61.14
2019-04-07T21:54:46.745Z,61.23
2019-04-07T21:57:23.513Z,61.31
2019-04-07T22:00:02.981Z,61.59
2019-04-07T22:02:44.788Z,61.81
2019-04-07T22:05:16.146Z,62.10
2019-04-07T22:08:04.168Z,62.23
2019-04-07T22:10:28.836Z,62.58
2019-04-07T22:13:01.804Z,62.63
2019-04-07T22:15:41.366Z,62.75
2019-04-07T22:18:00.399Z,62.92
2019-04-07T22:20:29.333Z,63.18
2019-04-07T22:23:01.407Z,63.33
2019-04-07T22:25:30.662Z,63.69
2019-04-07T22:28:00.333Z,63.94
2019-04-07T22:30:29.009Z,64.13
2019-04-07T22:32:58.665Z,64.31
2019-04-07T22:35:27.375Z,64.57
2019-04-07T22:37:56.215Z,64.74
2019-04-07T22:40:26.798Z,64.83
2019-04-07T22:42:57.318Z,64.84
2019-04-07T22:45:29.873Z,65.05
2019-04-07T22:47:59.217Z,65.21
2019-04-07T22:50:28.545Z,65.34
2019-04-07T22:52:57.561Z,65.42
2019-04-07T22:55:27.002Z,65.57
2019-04-07T22:57:57.924Z,65.83
2019-04-07T23:00:27.337Z,65.94
2019-04-07T23:02:56.454Z,66.11
2019-04-07T23:05:25.708Z,66.15
2019-04-07T23:07:54.604Z,66.28
2019-04-07T23:10:25.164Z,66.25
2019-04-07T23:12:55.241Z,66.46
2019-04-07T23:15:37.119Z,66.44
2019-04-07T23:17:57.677Z,66.39
2019-04-07T23:20:26.889Z,66.55
2019-04-07T23:22:56.443Z,66.60
2019-04-07T23:25:26.027Z,66.61
2019-04-07T23:27:54.875Z,66.77
2019-04-07T23:30:27.908Z,67.00
2019-04-07T23:32:57.714Z,67.20
2019-04-07T23:35:26.454Z,67.35
2019-04-07T23:37:55.793Z,67.52
2019-04-07T23:40:24.800Z,67.92
2019-04-07T23:42:53.357Z,68.11
2019-04-07T23:45:23.166Z,68.33
2019-04-07T23:47:52.565Z,68.91
2019-04-07T23:50:21.314Z,68.98
2019-04-07T23:52:50.162Z,69.08
2019-04-07T23:55:20.367Z,69.36
2019-04-07T23:57:49.040Z,69.42
